Moramanga, Madagascar

81°F / 27°C
Scattered Clouds
Heat Index: 82°F / 28°C
Humidity: 51%
Dew Point: 61°F / 16°C
Wind: SSE at 8 mph / 13 km/h
Pressure: 30.06 in / 1018 hPa (Steady)
Visibility: 6.2 miles / 10.0 kilometers
Clouds: Scattered Clouds (SCT) : 2300 ft / 701 m
Scattered Clouds (SCT) : 2600 ft / 792 m
Yesterday's Maximum: 77°F / 25°C
Yesterday's Minimum: 66°F / 19°C approx.
Yesterday's Cooling Degree Days: 7 approx.
UV: 4 out of 16
Sunrise:6:00 AM EAT
Sunset:5:30 PM EAT
Moon Rise:11:34 PM EAT
Moon Set:12:08 PM EAT
Moon Phase Waning Gibbous
NOAA Weather Radio
No local feed.
METAR FMMI 261200Z 15007KT 110V210 9999 SCT023CB SCT026 27/16 Q1018 NOSIG
As of: 3:00 PM EAT on April 26, 2019
Observed at: Antananarivo, Madagascar

View Station's History

Local Satellite

Current Satellite Forecast
Region Default Local
No Yes

View Full Screen WunderMap

Forecast

Current Satellite Forecast

Features

Weather Apps

WunderRadio

Weather Underground Apps
Check out our wide variety of mobile and setup applications.

Weather Underground Applications

Top of Page

© Copyright 2019
The Weather Company, LLC